createdAt,value
2019-02-26T00:00:31.792Z,16.03
2019-02-26T00:01:05.185Z,14.20
2019-02-26T00:01:38.610Z,17.33
2019-02-26T00:02:10.080Z,17.90
2019-02-26T00:02:41.699Z,19.03
2019-02-26T00:03:13.234Z,16.27
2019-02-26T00:03:44.754Z,17.63
2019-02-26T00:04:16.450Z,17.70
2019-02-26T00:04:49.186Z,17.27
2019-02-26T00:05:21.659Z,17.47
2019-02-26T00:05:54.888Z,18.33
2019-02-26T00:06:28.365Z,16.03
2019-02-26T00:07:00.758Z,16.23
2019-02-26T00:07:32.287Z,16.93
2019-02-26T00:08:03.591Z,15.70
2019-02-26T00:08:35.062Z,16.77
2019-02-26T00:09:08.313Z,19.40
2019-02-26T00:09:39.869Z,23.33
2019-02-26T00:10:11.367Z,23.17
2019-02-26T00:10:42.791Z,22.43
2019-02-26T00:11:14.189Z,22.67
2019-02-26T00:11:46.015Z,21.80
2019-02-26T00:12:19.967Z,16.03
2019-02-26T00:12:50.900Z,18.10
2019-02-26T00:13:23.420Z,18.73
2019-02-26T00:13:57.317Z,21.17
2019-02-26T00:14:30.304Z,21.30
2019-02-26T00:15:10.399Z,21.57
2019-02-26T00:15:43.273Z,17.57
2019-02-26T00:16:15.823Z,17.07
2019-02-26T00:16:49.282Z,15.57
2019-02-26T00:17:21.854Z,12.37
2019-02-26T00:17:53.303Z,12.63
2019-02-26T00:18:24.846Z,12.20
2019-02-26T00:18:58.557Z,11.10
2019-02-26T00:19:29.614Z,10.43
2019-02-26T00:20:01.120Z,11.10
2019-02-26T00:20:34.384Z,10.60
2019-02-26T00:21:05.714Z,10.10
2019-02-26T00:21:37.212Z,10.57
2019-02-26T00:22:09.592Z,9.90
2019-02-26T00:22:42.072Z,9.73
2019-02-26T00:23:13.544Z,9.97
2019-02-26T00:23:47.128Z,10.40
2019-02-26T00:24:19.564Z,10.00
2019-02-26T00:24:51.019Z,11.80
2019-02-26T00:25:22.530Z,11.97
2019-02-26T00:25:54.001Z,10.57
2019-02-26T00:26:25.419Z,10.40
2019-02-26T00:26:58.524Z,13.17
2019-02-26T00:27:30.607Z,13.80
2019-02-26T00:28:03.397Z,11.23
2019-02-26T00:28:36.293Z,10.70
2019-02-26T00:29:08.413Z,12.17
2019-02-26T00:29:39.861Z,11.60
2019-02-26T00:30:14.340Z,10.63
2019-02-26T00:30:45.187Z,11.87
2019-02-26T00:31:16.659Z,13.40
2019-02-26T00:31:49.006Z,13.07
2019-02-26T00:32:21.619Z,12.70
2019-02-26T00:32:53.657Z,12.13
2019-02-26T00:33:27.275Z,12.73
2019-02-26T00:33:59.750Z,11.37
2019-02-26T00:34:32.373Z,10.90
2019-02-26T00:35:04.594Z,9.90
2019-02-26T00:35:35.877Z,9.63
2019-02-26T00:36:08.982Z,9.83
2019-02-26T00:36:40.392Z,9.77
2019-02-26T00:37:11.888Z,8.43
2019-02-26T00:37:44.029Z,9.47
2019-02-26T00:38:18.168Z,9.60
2019-02-26T00:38:49.817Z,9.87
2019-02-26T00:39:23.351Z,10.13
2019-02-26T00:39:56.262Z,9.23
2019-02-26T00:40:27.618Z,8.73
2019-02-26T00:41:01.556Z,8.90
2019-02-26T00:41:33.560Z,10.37
2019-02-26T00:42:05.606Z,9.23
2019-02-26T00:42:36.981Z,11.53
2019-02-26T00:43:09.308Z,11.17
2019-02-26T00:43:40.719Z,10.87
2019-02-26T00:44:12.154Z,10.07
2019-02-26T00:44:43.634Z,10.40
2019-02-26T00:45:15.087Z,10.90
2019-02-26T00:45:46.556Z,10.13
2019-02-26T00:46:18.180Z,10.63
2019-02-26T00:46:53.434Z,10.10
2019-02-26T00:47:23.005Z,11.57
2019-02-26T00:47:54.500Z,11.50
2019-02-26T00:48:26.072Z,10.33
2019-02-26T00:48:59.080Z,10.60
2019-02-26T00:49:30.700Z,10.47
2019-02-26T00:50:05.547Z,10.17
2019-02-26T00:50:39.785Z,10.60
2019-02-26T00:51:11.303Z,10.10
2019-02-26T00:51:46.004Z,10.80
2019-02-26T00:52:16.159Z,10.63
2019-02-26T00:52:47.439Z,10.90
2019-02-26T00:53:21.217Z,10.43
2019-02-26T00:53:53.309Z,10.10
2019-02-26T00:54:26.664Z,9.80
2019-02-26T00:54:59.942Z,10.13
2019-02-26T00:55:32.751Z,11.67
2019-02-26T00:56:06.188Z,10.43
2019-02-26T00:56:39.330Z,9.83
2019-02-26T00:57:13.839Z,9.50
2019-02-26T00:57:44.877Z,10.53
2019-02-26T00:58:16.517Z,9.53
2019-02-26T00:58:48.373Z,10.13
2019-02-26T00:59:20.941Z,9.63
2019-02-26T00:59:52.441Z,9.70
2019-02-26T01:00:24.685Z,9.33
2019-02-26T01:00:57.113Z,9.97
2019-02-26T01:01:28.611Z,10.77
2019-02-26T01:02:00.007Z,9.63
2019-02-26T01:02:31.490Z,10.63
2019-02-26T01:03:03.979Z,9.77
2019-02-26T01:03:36.049Z,10.23
2019-02-26T01:04:07.394Z,10.17
2019-02-26T01:04:39.617Z,10.70
2019-02-26T01:05:15.742Z,9.77
2019-02-26T01:05:47.328Z,10.23
2019-02-26T01:06:18.896Z,10.60
2019-02-26T01:06:50.288Z,10.27
2019-02-26T01:07:23.763Z,11.20
2019-02-26T01:07:54.804Z,11.37
2019-02-26T01:08:26.094Z,11.17
2019-02-26T01:08:59.075Z,10.20
2019-02-26T01:09:31.927Z,12.37
2019-02-26T01:10:08.922Z,12.97
2019-02-26T01:10:41.524Z,10.97
2019-02-26T01:11:13.472Z,11.87
2019-02-26T01:11:45.784Z,11.37
2019-02-26T01:12:18.346Z,11.77
2019-02-26T01:12:49.706Z,12.23
2019-02-26T01:13:22.428Z,11.50
2019-02-26T01:13:55.209Z,13.50
2019-02-26T01:14:27.522Z,12.73
2019-02-26T01:14:58.808Z,11.43
2019-02-26T01:15:30.144Z,12.10
2019-02-26T01:16:01.438Z,11.80
2019-02-26T01:16:32.788Z,11.70
2019-02-26T01:17:04.194Z,11.43
2019-02-26T01:17:35.734Z,12.03
2019-02-26T01:18:08.915Z,11.60
2019-02-26T01:18:42.075Z,12.07
2019-02-26T01:19:15.184Z,11.23
2019-02-26T01:19:46.650Z,10.87
2019-02-26T01:20:19.708Z,12.50
2019-02-26T01:20:52.654Z,11.57
2019-02-26T01:21:26.796Z,12.00
2019-02-26T01:21:57.833Z,12.60
2019-02-26T01:22:31.085Z,13.00
2019-02-26T01:23:02.366Z,13.13
2019-02-26T01:23:33.555Z,12.60
2019-02-26T01:24:06.521Z,13.47
2019-02-26T01:24:38.015Z,13.27
2019-02-26T01:25:10.284Z,13.60
2019-02-26T01:25:42.707Z,12.80
2019-02-26T01:26:14.131Z,12.57
2019-02-26T01:26:46.531Z,13.60
2019-02-26T01:27:17.875Z,14.10
2019-02-26T01:27:51.114Z,12.37
2019-02-26T01:28:24.700Z,13.17
2019-02-26T01:28:56.589Z,12.77
2019-02-26T01:29:29.998Z,12.93
2019-02-26T01:30:03.742Z,11.97
2019-02-26T01:30:36.185Z,12.97
2019-02-26T01:31:07.725Z,12.33
2019-02-26T01:31:39.173Z,11.77
2019-02-26T01:32:15.199Z,12.23
2019-02-26T01:32:44.642Z,11.90
2019-02-26T01:33:16.240Z,12.70
2019-02-26T01:33:48.520Z,12.13
2019-02-26T01:34:20.878Z,12.93
2019-02-26T01:34:52.190Z,12.77
2019-02-26T01:35:23.552Z,13.00
2019-02-26T01:35:55.496Z,14.13
2019-02-26T01:36:28.078Z,12.27
2019-02-26T01:37:00.991Z,13.97
2019-02-26T01:37:34.320Z,12.97
2019-02-26T01:38:05.860Z,13.97
2019-02-26T01:38:39.444Z,14.63
2019-02-26T01:39:11.999Z,14.17
2019-02-26T01:39:44.851Z,13.03
2019-02-26T01:40:20.931Z,14.00
2019-02-26T01:40:51.895Z,13.60
2019-02-26T01:41:25.090Z,12.83
2019-02-26T01:41:58.708Z,13.40
2019-02-26T01:42:31.639Z,13.17
2019-02-26T01:43:05.516Z,13.77
2019-02-26T01:43:36.385Z,13.63
2019-02-26T01:44:08.821Z,14.40
2019-02-26T01:44:42.061Z,13.60
2019-02-26T01:45:13.605Z,14.70
2019-02-26T01:45:46.188Z,14.00
2019-02-26T01:46:18.747Z,12.77
2019-02-26T01:46:50.263Z,12.90
2019-02-26T01:47:22.536Z,14.17
2019-02-26T01:47:54.828Z,14.40
2019-02-26T01:48:26.113Z,14.20
2019-02-26T01:48:59.718Z,13.23
2019-02-26T01:49:30.757Z,13.70
2019-02-26T01:50:07.084Z,13.87
2019-02-26T01:50:40.600Z,14.93
2019-02-26T01:51:11.359Z,14.60
2019-02-26T01:51:43.280Z,16.33
2019-02-26T01:52:17.401Z,15.17
2019-02-26T01:52:50.006Z,14.60
2019-02-26T01:53:23.614Z,15.03
2019-02-26T01:53:55.046Z,14.53
2019-02-26T01:54:28.107Z,14.17
2019-02-26T01:55:00.752Z,14.63
2019-02-26T01:55:32.704Z,14.50
2019-02-26T01:56:05.085Z,14.60
2019-02-26T01:56:37.042Z,14.23
2019-02-26T01:57:09.127Z,14.77
2019-02-26T01:57:43.022Z,15.50
2019-02-26T01:58:16.594Z,15.60
2019-02-26T01:58:56.131Z,14.80
2019-02-26T01:59:20.483Z,15.33
2019-02-26T01:59:51.766Z,15.07
2019-02-26T02:00:25.414Z,15.27
2019-02-26T02:00:56.316Z,14.80
2019-02-26T02:01:27.693Z,15.40
2019-02-26T02:01:58.973Z,15.07
2019-02-26T02:02:30.400Z,15.67
2019-02-26T02:03:01.707Z,15.57
2019-02-26T02:03:33.014Z,15.37
2019-02-26T02:04:04.248Z,16.53
2019-02-26T02:04:36.982Z,16.23
2019-02-26T02:05:08.633Z,16.07
2019-02-26T02:05:39.992Z,15.43
2019-02-26T02:06:13.614Z,17.47
2019-02-26T02:06:44.526Z,17.57
2019-02-26T02:07:15.854Z,16.53
2019-02-26T02:07:49.581Z,17.30
2019-02-26T02:08:22.607Z,16.23
2019-02-26T02:08:55.622Z,16.57
2019-02-26T02:09:26.893Z,16.30
2019-02-26T02:10:00.635Z,15.63
2019-02-26T02:10:31.743Z,16.90
2019-02-26T02:11:04.830Z,15.27
2019-02-26T02:11:38.036Z,16.93
2019-02-26T02:12:11.028Z,16.10
2019-02-26T02:12:42.404Z,15.60
2019-02-26T02:13:13.703Z,16.23
2019-02-26T02:13:45.013Z,16.27
2019-02-26T02:14:17.062Z,16.37
2019-02-26T02:14:48.697Z,15.63
2019-02-26T02:15:21.638Z,16.43
2019-02-26T02:15:53.098Z,15.93
2019-02-26T02:16:26.519Z,16.03
2019-02-26T02:16:57.590Z,15.43
2019-02-26T02:17:30.880Z,16.50
2019-02-26T02:18:04.025Z,16.53
2019-02-26T02:18:35.467Z,17.30
2019-02-26T02:19:07.036Z,16.80
2019-02-26T02:19:38.435Z,17.47
2019-02-26T02:20:18.110Z,17.93
2019-02-26T02:20:47.286Z,18.27
2019-02-26T02:21:18.891Z,18.30
2019-02-26T02:21:51.515Z,18.07
2019-02-26T02:22:23.753Z,18.53
2019-02-26T02:22:56.042Z,19.03
2019-02-26T02:23:30.245Z,16.63
2019-02-26T02:24:01.734Z,17.87
2019-02-26T02:24:33.309Z,17.43
2019-02-26T02:25:06.491Z,17.00
2019-02-26T02:25:38.734Z,17.77
2019-02-26T02:26:11.667Z,16.67
2019-02-26T02:26:47.440Z,17.03
2019-02-26T02:27:19.507Z,17.03
2019-02-26T02:27:54.131Z,17.07
2019-02-26T02:28:24.661Z,16.73
2019-02-26T02:28:56.984Z,17.30
2019-02-26T02:29:28.639Z,16.77
2019-02-26T02:30:00.165Z,16.73
2019-02-26T02:30:35.555Z,17.97
2019-02-26T02:31:05.181Z,17.33
2019-02-26T02:31:37.847Z,18.23
2019-02-26T02:32:09.803Z,17.37
2019-02-26T02:32:41.085Z,17.67
2019-02-26T02:33:17.228Z,17.90
2019-02-26T02:33:46.781Z,18.17
2019-02-26T02:34:18.126Z,19.37
2019-02-26T02:34:49.514Z,18.73
2019-02-26T02:35:20.895Z,20.10
2019-02-26T02:35:52.315Z,20.13
2019-02-26T02:36:26.262Z,20.03
2019-02-26T02:36:57.029Z,19.60
2019-02-26T02:37:30.048Z,20.00
2019-02-26T02:38:03.020Z,19.60
2019-02-26T02:38:37.144Z,18.70
2019-02-26T02:39:12.929Z,17.67
2019-02-26T02:39:41.663Z,18.80
2019-02-26T02:40:13.157Z,19.27
2019-02-26T02:40:46.404Z,16.63
2019-02-26T02:41:17.830Z,18.10
2019-02-26T02:41:51.645Z,17.47
2019-02-26T02:42:22.857Z,18.50
2019-02-26T02:42:54.329Z,18.60
2019-02-26T02:43:25.781Z,17.50
2019-02-26T02:43:57.114Z,17.47
2019-02-26T02:44:28.529Z,17.00
2019-02-26T02:44:59.984Z,17.90
2019-02-26T02:45:31.405Z,18.27
2019-02-26T02:46:02.722Z,18.30
2019-02-26T02:46:36.552Z,19.30
2019-02-26T02:47:09.331Z,19.70
2019-02-26T02:47:40.564Z,18.47
2019-02-26T02:48:14.198Z,20.07
2019-02-26T02:48:45.675Z,19.77
2019-02-26T02:49:17.927Z,19.90
2019-02-26T02:49:50.543Z,19.63
2019-02-26T02:50:22.138Z,20.30
2019-02-26T02:50:53.489Z,19.77
2019-02-26T02:51:25.723Z,19.40
2019-02-26T02:51:59.026Z,19.17
2019-02-26T02:52:33.100Z,18.97
2019-02-26T02:53:04.525Z,18.80
2019-02-26T02:53:35.855Z,20.03
2019-02-26T02:54:07.266Z,19.13
2019-02-26T02:54:41.130Z,18.10
2019-02-26T02:55:13.889Z,19.13
2019-02-26T02:55:47.020Z,18.47
2019-02-26T02:56:18.463Z,19.07
2019-02-26T02:56:49.875Z,19.07
2019-02-26T02:57:21.869Z,18.87
2019-02-26T02:57:55.094Z,18.23
2019-02-26T02:58:27.655Z,18.20
2019-02-26T02:58:59.029Z,17.47
2019-02-26T02:59:31.013Z,18.53
2019-02-26T03:00:08.995Z,18.87
2019-02-26T03:00:40.797Z,19.03
2019-02-26T03:01:13.851Z,19.33
2019-02-26T03:01:49.019Z,20.97
2019-02-26T03:02:20.528Z,20.90
2019-02-26T03:02:53.675Z,19.67
2019-02-26T03:03:25.664Z,20.87
2019-02-26T03:04:00.546Z,21.07
2019-02-26T03:04:31.697Z,21.17
2019-02-26T03:05:05.286Z,20.27
2019-02-26T03:05:38.048Z,19.97
2019-02-26T03:06:12.273Z,20.40
2019-02-26T03:06:43.371Z,19.83
2019-02-26T03:07:15.381Z,18.60
2019-02-26T03:07:50.388Z,18.33
2019-02-26T03:08:22.343Z,19.90
2019-02-26T03:08:54.164Z,18.07
2019-02-26T03:09:25.715Z,18.80
2019-02-26T03:10:00.591Z,18.00
2019-02-26T03:10:34.592Z,18.33
2019-02-26T03:11:05.576Z,18.23
2019-02-26T03:11:41.149Z,17.43
2019-02-26T03:12:10.224Z,17.50
2019-02-26T03:12:46.893Z,17.20
2019-02-26T03:13:16.788Z,19.43
2019-02-26T03:13:49.316Z,18.73
2019-02-26T03:14:21.346Z,18.13
2019-02-26T03:14:52.658Z,19.57
2019-02-26T03:15:26.485Z,18.80
2019-02-26T03:15:59.291Z,19.33
2019-02-26T03:16:30.523Z,19.53
2019-02-26T03:17:02.056Z,19.00
2019-02-26T03:17:33.369Z,19.33
2019-02-26T03:18:07.145Z,19.87
2019-02-26T03:18:38.127Z,19.13
2019-02-26T03:19:11.643Z,19.27
2019-02-26T03:19:43.669Z,18.50
2019-02-26T03:20:15.655Z,18.90
2019-02-26T03:20:47.140Z,17.97
2019-02-26T03:21:20.174Z,17.70
2019-02-26T03:21:53.011Z,18.17
2019-02-26T03:22:25.581Z,18.23
2019-02-26T03:22:57.042Z,18.50
2019-02-26T03:23:28.391Z,19.33
2019-02-26T03:24:00.856Z,17.97
2019-02-26T03:24:33.892Z,18.23
2019-02-26T03:25:20.825Z,18.17
2019-02-26T03:25:52.414Z,17.40
2019-02-26T03:26:25.900Z,17.17
2019-02-26T03:26:57.070Z,18.33
2019-02-26T03:27:31.353Z,19.37
2019-02-26T03:28:01.663Z,18.87
2019-02-26T03:28:37.076Z,18.77
2019-02-26T03:29:07.169Z,18.43
2019-02-26T03:29:38.486Z,18.83
2019-02-26T03:30:27.511Z,20.60
2019-02-26T03:30:54.012Z,19.10
2019-02-26T03:31:29.238Z,20.07
2019-02-26T03:31:58.778Z,19.07
2019-02-26T03:32:30.097Z,18.97
2019-02-26T03:33:04.575Z,19.37
2019-02-26T03:33:34.762Z,19.03
2019-02-26T03:34:10.504Z,18.17
2019-02-26T03:34:39.383Z,19.10
2019-02-26T03:35:13.116Z,18.17
2019-02-26T03:35:43.756Z,18.03
2019-02-26T03:36:16.660Z,17.07
2019-02-26T03:36:48.261Z,17.53
2019-02-26T03:37:19.774Z,17.73
2019-02-26T03:37:54.528Z,16.83
2019-02-26T03:38:26.427Z,17.93
2019-02-26T03:39:00.726Z,16.40
2019-02-26T03:39:30.784Z,17.43
2019-02-26T03:40:06.564Z,17.97
2019-02-26T03:40:37.684Z,17.40
2019-02-26T03:41:09.162Z,20.03
2019-02-26T03:41:40.692Z,19.20
2019-02-26T03:42:14.145Z,18.73
2019-02-26T03:42:46.288Z,20.47
2019-02-26T03:43:17.719Z,19.17
2019-02-26T03:43:49.057Z,18.33
2019-02-26T03:44:20.293Z,19.57
2019-02-26T03:44:51.709Z,18.70
2019-02-26T03:45:24.693Z,19.00
2019-02-26T03:45:56.097Z,17.10
2019-02-26T03:46:27.513Z,17.13
2019-02-26T03:46:58.794Z,17.13
2019-02-26T03:47:30.085Z,17.07
2019-02-26T03:48:01.715Z,17.17
2019-02-26T03:48:33.165Z,16.27
2019-02-26T03:49:04.545Z,16.40
2019-02-26T03:49:35.917Z,16.47
2019-02-26T03:50:11.972Z,17.77
2019-02-26T03:50:44.602Z,15.83
2019-02-26T03:51:17.918Z,15.57
2019-02-26T03:51:49.546Z,16.10
2019-02-26T03:52:20.975Z,16.70
2019-02-26T03:52:52.372Z,16.80
2019-02-26T03:53:25.994Z,16.93
2019-02-26T03:53:56.960Z,17.83
2019-02-26T03:54:28.275Z,17.23
2019-02-26T03:54:59.546Z,17.73
2019-02-26T03:55:33.555Z,17.90
2019-02-26T03:56:04.575Z,18.90
2019-02-26T03:56:37.307Z,18.77
2019-02-26T03:57:09.053Z,18.90
2019-02-26T03:57:46.961Z,18.10
2019-02-26T03:58:15.145Z,17.23
2019-02-26T03:58:46.566Z,18.17
2019-02-26T03:59:18.012Z,18.63
2019-02-26T03:59:49.693Z,17.77
2019-02-26T04:00:21.113Z,16.87
2019-02-26T04:00:52.591Z,18.10
2019-02-26T04:01:23.996Z,17.73
2019-02-26T04:01:55.403Z,17.77
2019-02-26T04:02:27.836Z,17.33
2019-02-26T04:02:59.181Z,17.37
2019-02-26T04:03:32.144Z,17.03
2019-02-26T04:04:05.382Z,16.27
2019-02-26T04:04:36.844Z,16.07
2019-02-26T04:05:11.194Z,16.57
2019-02-26T04:05:42.472Z,15.97
2019-02-26T04:06:13.728Z,16.97
2019-02-26T04:06:47.107Z,15.83
2019-02-26T04:07:18.237Z,16.13
2019-02-26T04:07:52.439Z,16.47
2019-02-26T04:08:24.344Z,17.03
2019-02-26T04:08:56.174Z,16.60
2019-02-26T04:09:27.554Z,18.00
2019-02-26T04:09:58.795Z,17.43
2019-02-26T04:10:30.040Z,17.00
2019-02-26T04:11:01.987Z,16.27
2019-02-26T04:11:33.309Z,16.03
2019-02-26T04:12:04.569Z,16.17
2019-02-26T04:12:39.231Z,15.77
2019-02-26T04:13:08.967Z,16.17
2019-02-26T04:13:41.043Z,15.40
2019-02-26T04:14:15.367Z,14.33
2019-02-26T04:14:47.735Z,15.43
2019-02-26T04:15:18.950Z,16.70
2019-02-26T04:15:51.547Z,16.30
2019-02-26T04:16:23.305Z,15.03
2019-02-26T04:16:55.930Z,15.00
2019-02-26T04:17:30.294Z,17.17
2019-02-26T04:18:01.178Z,15.97
2019-02-26T04:18:34.735Z,18.20
2019-02-26T04:19:08.617Z,17.37
2019-02-26T04:19:43.487Z,20.17
2019-02-26T04:20:13.374Z,19.33
2019-02-26T04:20:44.683Z,18.10
2019-02-26T04:21:18.303Z,15.53
2019-02-26T04:22:26.195Z,16.73
2019-02-26T04:22:57.159Z,16.53
2019-02-26T04:23:29.622Z,17.93
2019-02-26T04:24:03.062Z,19.80
2019-02-26T04:24:37.424Z,16.80
2019-02-26T04:25:38.027Z,18.63
2019-02-26T04:26:55.854Z,17.40
2019-02-26T04:27:44.754Z,16.90
2019-02-26T04:28:30.818Z,16.03
2019-02-26T04:29:12.261Z,18.47
2019-02-26T04:29:46.728Z,16.87
2019-02-26T04:30:39.330Z,14.73
2019-02-26T04:31:20.294Z,15.40
2019-02-26T04:32:24.162Z,16.17
2019-02-26T04:33:04.847Z,14.73
2019-02-26T04:34:08.681Z,14.97
2019-02-26T04:34:45.554Z,15.67
2019-02-26T04:35:19.790Z,16.90
2019-02-26T04:36:12.545Z,17.87
2019-02-26T04:37:12.932Z,17.33
2019-02-26T04:38:12.144Z,17.33
2019-02-26T04:39:25.432Z,15.63
2019-02-26T04:40:17.272Z,16.83
2019-02-26T04:40:57.604Z,17.20
2019-02-26T04:41:36.589Z,17.50
2019-02-26T04:42:43.675Z,18.80
2019-02-26T04:43:38.854Z,16.83
2019-02-26T04:44:39.958Z,14.97
2019-02-26T04:45:37.486Z,16.20
2019-02-26T04:46:31.590Z,16.00
2019-02-26T04:47:05.880Z,15.70
2019-02-26T04:47:45.934Z,17.77
2019-02-26T04:48:26.929Z,17.47
2019-02-26T04:48:58.448Z,15.93
2019-02-26T04:49:30.854Z,16.63
2019-02-26T04:50:06.338Z,18.23
2019-02-26T04:50:39.431Z,17.07
2019-02-26T04:51:11.790Z,17.47
2019-02-26T04:51:44.995Z,14.30
2019-02-26T04:52:17.357Z,16.97
2019-02-26T04:52:48.860Z,17.97
2019-02-26T04:53:20.224Z,18.90
2019-02-26T04:53:53.686Z,17.77
2019-02-26T04:54:27.144Z,17.53
2019-02-26T04:54:57.926Z,18.07
2019-02-26T04:55:31.867Z,18.50
2019-02-26T04:56:03.141Z,19.20
2019-02-26T04:56:37.084Z,18.73
2019-02-26T04:57:08.724Z,18.77
2019-02-26T04:57:42.621Z,17.97
2019-02-26T04:58:17.044Z,16.93
2019-02-26T04:58:47.818Z,17.43
2019-02-26T04:59:20.153Z,16.33
2019-02-26T04:59:51.335Z,16.73
2019-02-26T05:00:23.672Z,15.93
2019-02-26T05:00:55.919Z,17.73
2019-02-26T05:01:27.218Z,17.73
2019-02-26T05:01:58.559Z,16.80
2019-02-26T05:02:29.888Z,17.27
2019-02-26T05:03:01.211Z,16.57
2019-02-26T05:03:32.607Z,20.00
2019-02-26T05:04:04.001Z,21.33
2019-02-26T05:04:36.892Z,20.33
2019-02-26T05:05:08.656Z,23.10
2019-02-26T05:05:40.031Z,18.40
2019-02-26T05:06:11.306Z,19.07
2019-02-26T05:06:42.767Z,20.07
2019-02-26T05:07:17.272Z,19.77
2019-02-26T05:07:50.001Z,20.63
2019-02-26T05:08:21.501Z,19.40
2019-02-26T05:08:55.930Z,21.40
2019-02-26T05:09:27.396Z,20.23
2019-02-26T05:10:01.904Z,19.57
2019-02-26T05:10:34.325Z,21.20
2019-02-26T05:11:05.882Z,19.73
2019-02-26T05:11:40.564Z,18.50
2019-02-26T05:12:10.794Z,17.50
2019-02-26T05:12:42.260Z,16.83
2019-02-26T05:13:13.564Z,18.87
2019-02-26T05:13:44.884Z,19.70
2019-02-26T05:14:20.998Z,20.50
2019-02-26T05:14:49.793Z,15.97
2019-02-26T05:15:23.298Z,17.13
2019-02-26T05:15:54.456Z,16.97
2019-02-26T05:16:26.689Z,18.10
2019-02-26T05:16:59.272Z,20.93
2019-02-26T05:17:33.173Z,17.07
2019-02-26T05:18:03.856Z,19.90
2019-02-26T05:18:35.224Z,22.57
2019-02-26T05:19:06.805Z,19.97
2019-02-26T05:19:39.497Z,19.43
2019-02-26T05:20:15.129Z,19.20
2019-02-26T05:20:48.481Z,15.63
2019-02-26T05:21:18.440Z,16.63
2019-02-26T05:21:50.185Z,18.40
2019-02-26T05:22:22.849Z,19.10
2019-02-26T05:22:57.735Z,15.73
2019-02-26T05:23:31.170Z,15.50
2019-02-26T05:24:03.026Z,15.17
2019-02-26T05:24:34.390Z,17.53
2019-02-26T05:25:10.360Z,15.83
2019-02-26T05:25:42.354Z,15.47
2019-02-26T05:26:15.095Z,14.57
2019-02-26T05:26:46.838Z,17.27
2019-02-26T05:27:21.877Z,15.97
2019-02-26T05:27:51.575Z,15.90
2019-02-26T05:28:23.000Z,16.77
2019-02-26T05:28:54.414Z,17.70
2019-02-26T05:29:25.837Z,19.40
2019-02-26T05:29:57.223Z,19.90
2019-02-26T05:30:28.664Z,21.17
2019-02-26T05:31:00.085Z,21.37
2019-02-26T05:31:34.548Z,20.07
2019-02-26T05:32:06.710Z,23.53
2019-02-26T05:32:37.792Z,22.83
2019-02-26T05:33:09.725Z,21.30
2019-02-26T05:33:40.957Z,17.97
2019-02-26T05:34:14.786Z,17.33
2019-02-26T05:34:48.162Z,18.40
2019-02-26T05:35:22.256Z,19.03
2019-02-26T05:35:52.110Z,18.50
2019-02-26T05:36:23.491Z,17.97
2019-02-26T05:36:54.850Z,19.03
2019-02-26T05:37:28.847Z,16.70
2019-02-26T05:38:01.566Z,16.30
2019-02-26T05:38:34.802Z,17.53
2019-02-26T05:39:06.204Z,18.87
2019-02-26T05:39:40.706Z,17.67
2019-02-26T05:40:15.000Z,15.87
2019-02-26T05:40:48.225Z,16.37
2019-02-26T05:41:19.188Z,17.03
2019-02-26T05:41:52.484Z,17.57
2019-02-26T05:42:23.836Z,20.20
2019-02-26T05:42:56.125Z,22.03
2019-02-26T05:43:30.698Z,20.03
2019-02-26T05:44:06.618Z,18.30
2019-02-26T05:44:35.444Z,19.30
2019-02-26T05:45:09.338Z,17.67
2019-02-26T05:45:40.360Z,18.17
2019-02-26T05:46:11.663Z,19.13
2019-02-26T05:46:43.015Z,21.80
2019-02-26T05:47:16.556Z,21.50
2019-02-26T05:47:50.199Z,19.70
2019-02-26T05:48:22.736Z,18.87
2019-02-26T05:48:54.098Z,19.40
2019-02-26T05:49:25.638Z,19.53
2019-02-26T05:49:57.017Z,18.70
2019-02-26T05:50:30.265Z,19.70
2019-02-26T05:51:05.123Z,20.33
2019-02-26T05:51:38.029Z,17.83
2019-02-26T05:52:09.098Z,20.73
2019-02-26T05:52:40.407Z,20.37
2019-02-26T05:53:13.458Z,20.30
2019-02-26T05:53:45.031Z,19.67
2019-02-26T05:54:20.889Z,19.10
2019-02-26T05:54:52.588Z,19.23
2019-02-26T05:55:25.494Z,18.93
2019-02-26T05:55:56.633Z,18.70
2019-02-26T05:56:28.034Z,19.73
2019-02-26T05:57:01.580Z,20.50
2019-02-26T05:57:32.905Z,19.60
2019-02-26T05:58:04.308Z,20.40
2019-02-26T05:58:36.751Z,21.17
2019-02-26T05:59:09.516Z,22.83
2019-02-26T05:59:42.206Z,22.50
2019-02-26T06:00:16.672Z,22.10
2019-02-26T06:00:46.977Z,23.43
2019-02-26T06:01:19.346Z,24.17
2019-02-26T06:01:54.744Z,25.10
2019-02-26T06:02:24.758Z,22.73
2019-02-26T06:02:56.094Z,22.47
2019-02-26T06:03:27.513Z,22.00
2019-02-26T06:03:58.742Z,22.70
2019-02-26T06:04:31.996Z,22.37
2019-02-26T06:05:07.099Z,20.37
2019-02-26T06:05:41.201Z,20.57
2019-02-26T06:06:11.728Z,19.90
2019-02-26T06:06:44.022Z,22.77
2019-02-26T06:07:19.177Z,21.67
2019-02-26T06:07:48.582Z,19.90
2019-02-26T06:08:20.107Z,21.33
2019-02-26T06:08:51.609Z,21.53
2019-02-26T06:09:25.492Z,21.73
2019-02-26T06:09:57.255Z,24.67
2019-02-26T06:10:32.385Z,21.23
2019-02-26T06:11:02.715Z,22.07
2019-02-26T06:11:36.341Z,18.23
2019-02-26T06:12:07.264Z,20.30
2019-02-26T06:12:40.978Z,19.47
2019-02-26T06:13:13.520Z,21.87
2019-02-26T06:13:45.124Z,25.03
2019-02-26T06:14:16.946Z,19.33
2019-02-26T06:14:48.186Z,19.80
2019-02-26T06:15:22.897Z,22.90
2019-02-26T06:15:55.315Z,26.77
2019-02-26T06:16:28.884Z,24.13
2019-02-26T06:17:00.351Z,22.90
2019-02-26T06:17:31.685Z,23.27
2019-02-26T06:18:03.017Z,25.33
2019-02-26T06:18:34.393Z,28.70
2019-02-26T06:19:08.493Z,24.20
2019-02-26T06:19:46.201Z,25.53
2019-02-26T06:20:21.029Z,26.20
2019-02-26T06:20:53.537Z,26.93
2019-02-26T06:21:26.183Z,26.40
2019-02-26T06:21:57.581Z,26.50
2019-02-26T06:22:31.519Z,23.70
2019-02-26T06:23:02.163Z,21.00
2019-02-26T06:23:34.451Z,24.77
2019-02-26T06:24:06.682Z,28.80
2019-02-26T06:24:38.128Z,30.03
2019-02-26T06:25:13.877Z,28.73
2019-02-26T06:25:42.826Z,29.57
2019-02-26T06:26:17.484Z,31.00
2019-02-26T06:26:47.486Z,29.53
2019-02-26T06:27:21.990Z,29.50
2019-02-26T06:27:52.142Z,25.27
2019-02-26T06:28:23.448Z,24.60
2019-02-26T06:28:54.846Z,27.57
2019-02-26T06:29:27.447Z,26.77
2019-02-26T06:30:00.795Z,25.37
2019-02-26T06:30:32.510Z,22.27
2019-02-26T06:31:04.014Z,24.50
2019-02-26T06:31:37.123Z,25.07
2019-02-26T06:32:14.995Z,23.10
2019-02-26T06:32:46.647Z,21.43
2019-02-26T06:33:17.916Z,21.43
2019-02-26T06:33:50.610Z,21.93
2019-02-26T06:34:22.214Z,22.30
2019-02-26T06:34:53.728Z,23.93
2019-02-26T06:35:24.939Z,24.07
2019-02-26T06:35:57.159Z,22.30
2019-02-26T06:36:30.458Z,24.63
2019-02-26T06:37:23.466Z,23.67
2019-02-26T06:37:55.045Z,23.57
2019-02-26T06:38:29.859Z,24.27
2019-02-26T06:39:01.541Z,23.60
2019-02-26T06:39:36.301Z,24.03
2019-02-26T06:40:14.329Z,23.53
2019-02-26T06:40:47.105Z,22.73
2019-02-26T06:41:19.145Z,23.47
2019-02-26T06:41:51.447Z,25.23
2019-02-26T06:42:22.865Z,22.90
2019-02-26T06:42:54.326Z,25.10
2019-02-26T06:43:25.648Z,22.93
2019-02-26T06:43:57.090Z,23.37
2019-02-26T06:44:28.532Z,26.77
2019-02-26T06:44:59.992Z,22.83
2019-02-26T06:45:31.471Z,23.07
2019-02-26T06:46:04.917Z,24.80
2019-02-26T06:48:17.666Z,22.47
2019-02-26T06:48:49.566Z,22.90
2019-02-26T06:49:22.811Z,22.70
2019-02-26T08:41:00.011Z,19.83
2019-02-26T08:41:31.303Z,21.60
2019-02-26T08:42:08.025Z,21.63
2019-02-26T08:42:39.273Z,21.23
2019-02-26T08:43:10.516Z,23.60
2019-02-26T08:43:44.146Z,25.50
2019-02-26T08:44:15.209Z,27.37
2019-02-26T08:44:48.613Z,22.07
2019-02-26T08:45:21.009Z,24.27
2019-02-26T08:45:52.808Z,23.00
2019-02-26T08:46:24.019Z,23.57
2019-02-26T08:46:55.162Z,24.47
2019-02-26T08:47:26.366Z,24.57
2019-02-26T08:47:57.537Z,25.20
2019-02-26T08:48:28.788Z,26.27
2019-02-26T08:49:08.132Z,22.77
2019-02-26T08:49:35.135Z,21.83
2019-02-26T08:50:10.500Z,22.57
2019-02-26T08:50:44.051Z,21.23
2019-02-26T08:51:16.874Z,22.80
2019-02-26T08:51:48.912Z,22.67
2019-02-26T08:52:24.076Z,21.43
2019-02-26T08:52:55.559Z,21.03
2019-02-26T08:53:27.070Z,21.63
2019-02-26T08:53:59.540Z,21.53
2019-02-26T08:54:33.143Z,22.13
2019-02-26T08:55:07.223Z,19.63
2019-02-26T08:55:38.469Z,19.60
2019-02-26T08:56:09.636Z,19.77
2019-02-26T08:56:41.043Z,20.40
2019-02-26T08:57:12.211Z,20.40
2019-02-26T08:57:43.433Z,19.63
2019-02-26T08:58:14.582Z,17.97
2019-02-26T08:58:45.950Z,20.57
2019-02-26T08:59:17.778Z,19.37
2019-02-26T08:59:52.065Z,19.33
2019-02-26T09:00:23.321Z,17.47